Rita Ann — WDG4670 — position and weather

sailwx.info

Track history (hours):
 
Tides and Currents Weather Stations Pressure Air Temp Water Temp Dewpoint Dewpoint Depression Visibility Wind Speed Wind Dir Waves Ship Positions

Rita Ann

Owner: D&S Marine Service, LLC, Houma, LA. More information available from US FCC via Universal Licensing System and Coast Guard Vessel Documentation Center.

Last reported at 2017-Sep-22 01:58 UTC. Time now 2017-Sep-23 07:15 UTC.
Position N 29°42' W 095°00'.

Length 22 m; draft 3 m.

Type: . MMSI: 367538940.

Date/timePositionNaut miles runAvg speedWind from/ knotsBaromVisibWave heightAir tempDewpointWater temp
2017-Sep-22 01:58N 29°42' W 095°00'3 5.0
2017-Sep-22 01:25N 29°44' W 095°03'3 5.5
2017-Sep-22 00:55N 29°46' W 095°05'2 3.5
2017-Sep-22 00:28N 29°47' W 095°04'1 0.6
2017-Sep-21 22:31N 29°46' W 095°05'0 6.0
2017-Sep-21 22:28N 29°46' W 095°05'1 1.0
2017-Sep-21 21:19N 29°46' W 095°06'1 3.2
2017-Sep-21 20:56N 29°46' W 095°05'1 1.8
2017-Sep-21 20:26N 29°47' W 095°05'0 0.0
2017-Sep-21 19:53N 29°47' W 095°05'0 0.0
2017-Sep-21 19:30N 29°47' W 095°05'0 0.0
2017-Sep-21 19:00N 29°47' W 095°05'0 0.0
2017-Sep-21 18:29N 29°47' W 095°05'0 0.0
2017-Sep-21 17:59N 29°47' W 095°05'0 0.0
2017-Sep-21 17:30N 29°47' W 095°05'0 0.0
2017-Sep-21 16:59N 29°47' W 095°05'0 0.0
2017-Sep-21 16:30N 29°47' W 095°05'1 0.1
2017-Sep-21 09:05N 29°47' W 095°05'0 4.3
2017-Sep-21 09:01N 29°46' W 095°05'1 2.3
2017-Sep-21 08:28N 29°45' W 095°04'2 4.5
2017-Sep-21 08:00N 29°44' W 095°02'2 4.5
2017-Sep-21 07:30N 29°42' W 095°01'2 4.7
2017-Sep-21 07:00N 29°41' W 094°59'3 5.2
2017-Sep-21 06:30N 29°38' W 094°58'2 4.7
2017-Sep-21 06:00N 29°36' W 094°57'3 5.4
2017-Sep-21 05:31N 29°34' W 094°55'3 5.1
2017-Sep-21 05:00N 29°31' W 094°53'69 3.4
2017-Sep-20 08:56N 30°03' W 093°43'2 4.6
2017-Sep-20 08:30N 30°04' W 093°41'2 4.8
2017-Sep-20 08:01N 30°04' W 093°38'2 4.2
2017-Sep-20 07:31N 30°04' W 093°36'2 4.0
2017-Sep-20 07:00N 30°04' W 093°33'2 4.0
2017-Sep-20 06:30N 30°04' W 093°31'2 4.0
2017-Sep-20 06:01N 30°04' W 093°29'2 4.0
2017-Sep-20 05:30N 30°04' W 093°26'2 3.9
2017-Sep-20 05:00N 30°04' W 093°24'2 3.8
2017-Sep-20 04:30N 30°04' W 093°22'2 3.1
2017-Sep-20 04:01N 30°04' W 093°20'2 4.3
2017-Sep-20 03:31N 30°06' W 093°19'2 3.6
2017-Sep-20 03:01N 30°05' W 093°17'1 1.2
2017-Sep-20 02:30N 30°05' W 093°17'0 0.1
2017-Sep-20 02:00N 30°05' W 093°17'0 0.3
2017-Sep-20 01:31N 30°04' W 093°16'1 2.0
2017-Sep-20 01:00N 30°04' W 093°16'1 3.0
2017-Sep-20 00:31N 30°02' W 093°15'2 3.9
2017-Sep-20 00:01N 30°01' W 093°14'1 2.9
2017-Sep-19 23:30N 29°60' W 093°13'1 2.4
2017-Sep-19 23:00N 29°59' W 093°12'2 4.4
2017-Sep-19 22:31N 29°57' W 093°10'3 3.9
2017-Sep-19 21:47N 29°56' W 093°07'40 3.9
2017-Sep-19 11:32N 29°51' W 092°22'0 3.5
2017-Sep-19 11:28N 29°51' W 092°21'1 2.6
2017-Sep-19 11:00N 29°51' W 092°20'1 1.1
2017-Sep-19 10:31N 29°50' W 092°19'1 1.8
2017-Sep-19 10:00N 29°50' W 092°18'2 3.2
2017-Sep-19 09:30N 29°49' W 092°17'2 3.5
2017-Sep-19 09:01N 29°48' W 092°15'2 3.6
2017-Sep-19 08:31N 29°48' W 092°13'2 3.4
2017-Sep-19 08:01N 29°47' W 092°12'1 2.2
2017-Sep-19 07:30N 29°47' W 092°11'2 3.6
2017-Sep-19 07:00N 29°47' W 092°09'2 4.0
2017-Sep-19 06:31N 29°48' W 092°06'2 4.2
2017-Sep-19 06:00N 29°48' W 092°04'2 4.1
2017-Sep-19 05:30N 29°49' W 092°02'  
2017-Sep-16 15:25N 29°50' W 091°60'2 5.3
2017-Sep-16 15:00N 29°49' W 092°02'3 5.2
2017-Sep-16 14:30N 29°48' W 092°05'3 5.2
2017-Sep-16 14:00N 29°47' W 092°08'2 4.2
2017-Sep-16 13:30N 29°47' W 092°10'2 4.3
2017-Sep-16 13:00N 29°47' W 092°12'1 2.9
2017-Sep-16 12:30N 29°48' W 092°14'1 1.5
2017-Sep-16 12:00N 29°48' W 092°15'0 0.5
2017-Sep-16 11:30N 29°48' W 092°15'2 3.6
2017-Sep-16 11:00N 29°49' W 092°17'0 0.0
2017-Sep-16 10:30N 29°49' W 092°17'0 0.0
2017-Sep-16 10:00N 29°49' W 092°17'0 0.0
2017-Sep-16 09:30N 29°49' W 092°17'0 0.0
2017-Sep-16 09:00N 29°49' W 092°17'0 0.0
2017-Sep-16 08:30N 29°49' W 092°17'0 0.1
2017-Sep-16 08:00N 29°49' W 092°17'1 2.1
2017-Sep-16 07:28N 29°50' W 092°18'0 0.0
2017-Sep-16 06:59N 29°50' W 092°18'0 0.4
2017-Sep-16 06:28N 29°50' W 092°18'41 4.6
2017-Sep-15 21:26N 29°56' W 093°05'2 4.3
2017-Sep-15 21:00N 29°56' W 093°07'2 4.2
2017-Sep-15 20:30N 29°56' W 093°10'2 4.5
2017-Sep-15 20:00N 29°58' W 093°11'2 4.4
2017-Sep-15 19:30N 29°60' W 093°13'2 4.0
2017-Sep-15 19:00N 30°01' W 093°14'2 4.1
2017-Sep-15 18:30N 30°03' W 093°16'2 4.1
2017-Sep-15 18:00N 30°05' W 093°17'2 4.0
2017-Sep-15 17:30N 30°06' W 093°18'2 4.6
2017-Sep-15 17:00N 30°04' W 093°20'2 3.4
2017-Sep-15 16:30N 30°04' W 093°22'0 0.0
2017-Sep-15 16:00N 30°04' W 093°22'0 0.2
2017-Sep-15 15:30N 30°04' W 093°22'0 0.0
2017-Sep-15 15:00N 30°04' W 093°22'1 1.7
2017-Sep-15 14:30N 30°04' W 093°23'3 5.5
2017-Sep-15 14:00N 30°04' W 093°26'3 5.6
2017-Sep-15 13:30N 30°04' W 093°29'3 5.6
2017-Sep-15 13:00N 30°04' W 093°33'3 5.7
2017-Sep-15 12:30N 30°04' W 093°36'3 6.1
2017-Sep-15 11:58N 30°04' W 093°40'71 2.6
2017-Sep-14 08:29N 29°29' W 094°52'2 3.6
2017-Sep-14 08:00N 29°30' W 094°53'2 3.3
2017-Sep-14 07:30N 29°32' W 094°54'2 4.1
2017-Sep-14 07:00N 29°33' W 094°55'2 4.6
2017-Sep-14 06:30N 29°35' W 094°56'2 4.5
2017-Sep-14 06:00N 29°37' W 094°58'3 4.7
2017-Sep-14 05:26N 29°40' W 094°58'2 4.4
2017-Sep-14 05:00N 29°42' W 094°60'2 4.1
2017-Sep-14 04:30N 29°43' W 095°01'2 4.2
2017-Sep-14 03:59N 29°44' W 095°03'3 0.6
2017-Sep-13 23:49N 29°47' W 095°05'0 0.0
2017-Sep-13 22:16N 29°47' W 095°05'0 0.1
2017-Sep-13 21:46N 29°47' W 095°05'1 0.1
2017-Sep-13 10:03N 29°46' W 095°06'0 1.0
2017-Sep-13 10:00N 29°46' W 095°06'2 2.3
2017-Sep-13 09:16N 29°47' W 095°05'0 0.0
2017-Sep-13 08:57N 29°47' W 095°05'0 0.0
2017-Sep-13 08:27N 29°47' W 095°05'0 0.0
2017-Sep-13 07:57N 29°47' W 095°05'1 0.3
2017-Sep-13 04:54N 29°46' W 095°05'2 4.1
2017-Sep-13 04:30N 29°45' W 095°04'3 5.1
2017-Sep-13 03:57N 29°43' W 095°01'2 4.7
2017-Sep-13 03:30N 29°42' W 094°60'3 5.2
2017-Sep-13 03:00N 29°39' W 094°58'3 5.9
2017-Sep-13 02:30N 29°37' W 094°57'3 5.9
2017-Sep-13 02:00N 29°34' W 094°55'3 5.8
2017-Sep-13 01:30N 29°32' W 094°54'3 5.7
2017-Sep-13 00:59N 29°29' W 094°52'80 4.4
2017-Sep-12 06:31N 30°04' W 093°28'0 4.1
2017-Sep-12 06:29N 30°04' W 093°28'2 3.8
2017-Sep-12 06:00N 30°04' W 093°26'2 3.8
2017-Sep-12 05:29N 30°04' W 093°23'2 3.7
2017-Sep-12 05:00N 30°04' W 093°21'2 3.3
2017-Sep-12 04:30N 30°05' W 093°20'0 0.1
2017-Sep-12 04:00N 30°05' W 093°20'0 0.5
2017-Sep-12 03:30N 30°05' W 093°20'0 0.5
2017-Sep-12 03:00N 30°04' W 093°20'2 3.7
2017-Sep-12 02:30N 30°04' W 093°22'2 3.8
2017-Sep-12 02:00N 30°04' W 093°25'  
Track history (hours):
 
Tides and Currents Weather Stations Pressure Air Temp Water Temp Dewpoint Dewpoint Depression Visibility Wind Speed Wind Dir Waves Ship Positions

Rita Ann

Owner: D&S Marine Service, LLC, Houma, LA. More information available from US FCC via Universal Licensing System and Coast Guard Vessel Documentation Center.

Last reported at 2017-Sep-22 01:58 UTC. Time now 2017-Sep-23 07:15 UTC.
Position N 29°42' W 095°00'.

Length 22 m; draft 3 m.

Type: . MMSI: 367538940.

Date/timePositionNaut miles runAvg speedWind from/ knotsBaromVisibWave heightAir tempDewpointWater temp
2017-Sep-22 01:58N 29°42' W 095°00'3 5.0
2017-Sep-22 01:25N 29°44' W 095°03'3 5.5
2017-Sep-22 00:55N 29°46' W 095°05'2 3.5
2017-Sep-22 00:28N 29°47' W 095°04'1 0.6
2017-Sep-21 22:31N 29°46' W 095°05'0 6.0
2017-Sep-21 22:28N 29°46' W 095°05'1 1.0
2017-Sep-21 21:19N 29°46' W 095°06'1 3.2
2017-Sep-21 20:56N 29°46' W 095°05'1 1.8
2017-Sep-21 20:26N 29°47' W 095°05'0 0.0
2017-Sep-21 19:53N 29°47' W 095°05'0 0.0
2017-Sep-21 19:30N 29°47' W 095°05'0 0.0
2017-Sep-21 19:00N 29°47' W 095°05'0 0.0
2017-Sep-21 18:29N 29°47' W 095°05'0 0.0
2017-Sep-21 17:59N 29°47' W 095°05'0 0.0
2017-Sep-21 17:30N 29°47' W 095°05'0 0.0
2017-Sep-21 16:59N 29°47' W 095°05'0 0.0
2017-Sep-21 16:30N 29°47' W 095°05'1 0.1
2017-Sep-21 09:05N 29°47' W 095°05'0 4.3
2017-Sep-21 09:01N 29°46' W 095°05'1 2.3
2017-Sep-21 08:28N 29°45' W 095°04'2 4.5
2017-Sep-21 08:00N 29°44' W 095°02'2 4.5
2017-Sep-21 07:30N 29°42' W 095°01'2 4.7
2017-Sep-21 07:00N 29°41' W 094°59'3 5.2
2017-Sep-21 06:30N 29°38' W 094°58'2 4.7
2017-Sep-21 06:00N 29°36' W 094°57'3 5.4
2017-Sep-21 05:31N 29°34' W 094°55'3 5.1
2017-Sep-21 05:00N 29°31' W 094°53'69 3.4
2017-Sep-20 08:56N 30°03' W 093°43'2 4.6
2017-Sep-20 08:30N 30°04' W 093°41'2 4.8
2017-Sep-20 08:01N 30°04' W 093°38'2 4.2
2017-Sep-20 07:31N 30°04' W 093°36'2 4.0
2017-Sep-20 07:00N 30°04' W 093°33'2 4.0
2017-Sep-20 06:30N 30°04' W 093°31'2 4.0
2017-Sep-20 06:01N 30°04' W 093°29'2 4.0
2017-Sep-20 05:30N 30°04' W 093°26'2 3.9
2017-Sep-20 05:00N 30°04' W 093°24'2 3.8
2017-Sep-20 04:30N 30°04' W 093°22'2 3.1
2017-Sep-20 04:01N 30°04' W 093°20'2 4.3
2017-Sep-20 03:31N 30°06' W 093°19'2 3.6
2017-Sep-20 03:01N 30°05' W 093°17'1 1.2
2017-Sep-20 02:30N 30°05' W 093°17'0 0.1
2017-Sep-20 02:00N 30°05' W 093°17'0 0.3
2017-Sep-20 01:31N 30°04' W 093°16'1 2.0
2017-Sep-20 01:00N 30°04' W 093°16'1 3.0
2017-Sep-20 00:31N 30°02' W 093°15'2 3.9
2017-Sep-20 00:01N 30°01' W 093°14'1 2.9
2017-Sep-19 23:30N 29°60' W 093°13'1 2.4
2017-Sep-19 23:00N 29°59' W 093°12'2 4.4
2017-Sep-19 22:31N 29°57' W 093°10'3 3.9
2017-Sep-19 21:47N 29°56' W 093°07'40 3.9
2017-Sep-19 11:32N 29°51' W 092°22'0 3.5
2017-Sep-19 11:28N 29°51' W 092°21'1 2.6
2017-Sep-19 11:00N 29°51' W 092°20'1 1.1
2017-Sep-19 10:31N 29°50' W 092°19'1 1.8
2017-Sep-19 10:00N 29°50' W 092°18'2 3.2
2017-Sep-19 09:30N 29°49' W 092°17'2 3.5
2017-Sep-19 09:01N 29°48' W 092°15'2 3.6
2017-Sep-19 08:31N 29°48' W 092°13'2 3.4
2017-Sep-19 08:01N 29°47' W 092°12'1 2.2
2017-Sep-19 07:30N 29°47' W 092°11'2 3.6
2017-Sep-19 07:00N 29°47' W 092°09'2 4.0
2017-Sep-19 06:31N 29°48' W 092°06'2 4.2
2017-Sep-19 06:00N 29°48' W 092°04'2 4.1
2017-Sep-19 05:30N 29°49' W 092°02'  
2017-Sep-16 15:25N 29°50' W 091°60'2 5.3
2017-Sep-16 15:00N 29°49' W 092°02'3 5.2
2017-Sep-16 14:30N 29°48' W 092°05'3 5.2
2017-Sep-16 14:00N 29°47' W 092°08'2 4.2
2017-Sep-16 13:30N 29°47' W 092°10'2 4.3
2017-Sep-16 13:00N 29°47' W 092°12'1 2.9
2017-Sep-16 12:30N 29°48' W 092°14'1 1.5
2017-Sep-16 12:00N 29°48' W 092°15'0 0.5
2017-Sep-16 11:30N 29°48' W 092°15'2 3.6
2017-Sep-16 11:00N 29°49' W 092°17'0 0.0
2017-Sep-16 10:30N 29°49' W 092°17'0 0.0
2017-Sep-16 10:00N 29°49' W 092°17'0 0.0
2017-Sep-16 09:30N 29°49' W 092°17'0 0.0
2017-Sep-16 09:00N 29°49' W 092°17'0 0.0
2017-Sep-16 08:30N 29°49' W 092°17'0 0.1
2017-Sep-16 08:00N 29°49' W 092°17'1 2.1
2017-Sep-16 07:28N 29°50' W 092°18'0 0.0
2017-Sep-16 06:59N 29°50' W 092°18'0 0.4
2017-Sep-16 06:28N 29°50' W 092°18'41 4.6
2017-Sep-15 21:26N 29°56' W 093°05'2 4.3
2017-Sep-15 21:00N 29°56' W 093°07'2 4.2
2017-Sep-15 20:30N 29°56' W 093°10'2 4.5
2017-Sep-15 20:00N 29°58' W 093°11'2 4.4
2017-Sep-15 19:30N 29°60' W 093°13'2 4.0
2017-Sep-15 19:00N 30°01' W 093°14'2 4.1
2017-Sep-15 18:30N 30°03' W 093°16'2 4.1
2017-Sep-15 18:00N 30°05' W 093°17'2 4.0
2017-Sep-15 17:30N 30°06' W 093°18'2 4.6
2017-Sep-15 17:00N 30°04' W 093°20'2 3.4
2017-Sep-15 16:30N 30°04' W 093°22'0 0.0
2017-Sep-15 16:00N 30°04' W 093°22'0 0.2
2017-Sep-15 15:30N 30°04' W 093°22'0 0.0
2017-Sep-15 15:00N 30°04' W 093°22'1 1.7
2017-Sep-15 14:30N 30°04' W 093°23'3 5.5
2017-Sep-15 14:00N 30°04' W 093°26'3 5.6
2017-Sep-15 13:30N 30°04' W 093°29'3 5.6
2017-Sep-15 13:00N 30°04' W 093°33'3 5.7
2017-Sep-15 12:30N 30°04' W 093°36'3 6.1
2017-Sep-15 11:58N 30°04' W 093°40'71 2.6
2017-Sep-14 08:29N 29°29' W 094°52'2 3.6
2017-Sep-14 08:00N 29°30' W 094°53'2 3.3
2017-Sep-14 07:30N 29°32' W 094°54'2 4.1
2017-Sep-14 07:00N 29°33' W 094°55'2 4.6
2017-Sep-14 06:30N 29°35' W 094°56'2 4.5
2017-Sep-14 06:00N 29°37' W 094°58'3 4.7
2017-Sep-14 05:26N 29°40' W 094°58'2 4.4
2017-Sep-14 05:00N 29°42' W 094°60'2 4.1
2017-Sep-14 04:30N 29°43' W 095°01'2 4.2
2017-Sep-14 03:59N 29°44' W 095°03'3 0.6
2017-Sep-13 23:49N 29°47' W 095°05'0 0.0
2017-Sep-13 22:16N 29°47' W 095°05'0 0.1
2017-Sep-13 21:46N 29°47' W 095°05'1 0.1
2017-Sep-13 10:03N 29°46' W 095°06'0 1.0
2017-Sep-13 10:00N 29°46' W 095°06'2 2.3
2017-Sep-13 09:16N 29°47' W 095°05'0 0.0
2017-Sep-13 08:57N 29°47' W 095°05'0 0.0
2017-Sep-13 08:27N 29°47' W 095°05'0 0.0
2017-Sep-13 07:57N 29°47' W 095°05'1 0.3
2017-Sep-13 04:54N 29°46' W 095°05'2 4.1
2017-Sep-13 04:30N 29°45' W 095°04'3 5.1
2017-Sep-13 03:57N 29°43' W 095°01'2 4.7
2017-Sep-13 03:30N 29°42' W 094°60'3 5.2
2017-Sep-13 03:00N 29°39' W 094°58'3 5.9
2017-Sep-13 02:30N 29°37' W 094°57'3 5.9
2017-Sep-13 02:00N 29°34' W 094°55'3 5.8
2017-Sep-13 01:30N 29°32' W 094°54'3 5.7
2017-Sep-13 00:59N 29°29' W 094°52'80 4.4
2017-Sep-12 06:31N 30°04' W 093°28'0 4.1
2017-Sep-12 06:29N 30°04' W 093°28'2 3.8
2017-Sep-12 06:00N 30°04' W 093°26'2 3.8
2017-Sep-12 05:29N 30°04' W 093°23'2 3.7
2017-Sep-12 05:00N 30°04' W 093°21'2 3.3
2017-Sep-12 04:30N 30°05' W 093°20'0 0.1
2017-Sep-12 04:00N 30°05' W 093°20'0 0.5
2017-Sep-12 03:30N 30°05' W 093°20'0 0.5
2017-Sep-12 03:00N 30°04' W 093°20'2 3.7
2017-Sep-12 02:30N 30°04' W 093°22'2 3.8
2017-Sep-12 02:00N 30°04' W 093°25'  

Dump ship's entire track history